Time;durP1;ratioP1;P1;durP2;ratioP2;P2;SDS_P1;SDS_P2;PMS_P1;PMS_P2;Temp;Humidity;BMP_temperature;BMP_pressure;BME280_temperature;BME280_humidity;BME280_pressure;Samples;Min_cycle;Max_cycle;Signal;HPM_P1;HPM_P2
2021/12/03 00:01:33;;;;;;;4.58;2.58;;;;;;;9.71;44.88;98528.95;2207008;88;26474;-78
2021/12/03 00:05:19;;;;;;;6.50;2.55;;;;;;;9.67;44.89;98532.44;2207260;88;26153;-79
2021/12/03 00:09:10;;;;;;;3.72;2.65;;;;;;;9.66;44.90;98543.28;2167642;89;25913;-77
2021/12/03 00:12:31;;;;;;;6.05;2.90;;;;;;;9.67;44.94;98559.31;2167953;90;25899;-77
2021/12/03 00:15:54;;;;;;;5.90;2.85;;;;;;;9.67;44.96;98559.75;2170910;89;25376;-78
2021/12/03 00:19:15;;;;;;;5.15;2.77;;;;;;;9.65;44.95;98550.66;2175798;90;25773;-78
2021/12/03 00:22:51;;;;;;;6.07;2.47;;;;;;;9.65;44.97;98541.97;2172862;90;29196;-79
2021/12/03 00:26:12;;;;;;;3.27;2.50;;;;;;;9.63;44.99;98546.33;2165016;90;25770;-78
2021/12/03 00:30:24;;;;;;;5.28;2.92;;;;;;;9.62;45.01;98540.70;2155680;90;25924;-78
2021/12/03 00:33:54;;;;;;;4.05;2.58;;;;;;;9.61;45.00;98550.22;2159577;90;26198;-78
2021/12/03 00:37:22;;;;;;;5.20;2.72;;;;;;;9.57;45.01;98550.23;2138490;91;26107;-78
2021/12/03 00:41:01;;;;;;;4.20;2.90;;;;;;;9.57;45.03;98565.84;2209175;89;26224;-77
2021/12/03 00:44:33;;;;;;;4.35;3.00;;;;;;;9.56;45.05;98562.82;2239106;86;25746;-77
2021/12/03 00:48:06;;;;;;;4.00;2.77;;;;;;;9.55;45.09;98577.97;2238774;86;26028;-78
2021/12/03 00:51:27;;;;;;;7.03;3.60;;;;;;;9.52;45.13;98587.97;2241974;87;26431;-79
2021/12/03 00:58:46;;;;;;;6.25;3.20;;;;;;;9.49;45.17;98599.67;2189798;89;25734;-77
2021/12/03 01:02:07;;;;;;;3.52;1.90;;;;;;;9.49;45.19;98598.81;2210059;89;25813;-78
2021/12/03 01:05:31;;;;;;;4.37;2.65;;;;;;;9.49;45.23;98609.22;2208359;89;25762;-79
2021/12/03 01:08:55;;;;;;;5.40;2.85;;;;;;;9.46;45.25;98604.44;2222039;87;25869;-79
2021/12/03 01:12:16;;;;;;;3.72;3.00;;;;;;;9.46;45.27;98610.08;2239351;87;26006;-79
2021/12/03 01:15:40;;;;;;;4.58;2.58;;;;;;;9.44;45.24;98603.56;2240951;86;26015;-78
2021/12/03 01:19:22;;;;;;;5.00;2.62;;;;;;;9.41;45.26;98597.05;2227281;87;25679;-79
2021/12/03 01:23:03;;;;;;;3.90;2.95;;;;;;;9.38;45.28;98593.59;2221640;88;25654;-79
2021/12/03 01:30:30;;;;;;;5.33;2.58;;;;;;;9.35;45.37;98607.48;2221482;87;26044;-77
2021/12/03 01:34:09;;;;;;;6.97;2.72;;;;;;;9.34;45.41;98610.92;2230520;88;25918;-78
2021/12/03 01:41:48;;;;;;;4.33;2.80;;;;;;;9.33;45.44;98631.75;2177513;88;25857;-77
2021/12/03 01:45:26;;;;;;;4.85;3.60;;;;;;;9.28;45.42;98629.16;2166779;90;25821;-78
2021/12/03 01:49:18;;;;;;;6.42;3.35;;;;;;;9.27;45.45;98635.20;2175096;88;26321;-77
2021/12/03 01:52:55;;;;;;;4.28;2.77;;;;;;;9.24;45.47;98637.80;2179751;88;25758;-77
2021/12/03 01:56:18;;;;;;;4.45;2.35;;;;;;;9.25;45.49;98649.05;2176470;88;25689;-78
2021/12/03 01:59:39;;;;;;;6.17;3.22;;;;;;;9.25;45.52;98647.75;2180414;90;26000;-78
2021/12/03 02:03:30;;;;;;;5.10;2.37;;;;;;;9.24;45.55;98652.09;2161690;88;29020;-78
2021/12/03 02:06:53;;;;;;;4.17;2.42;;;;;;;9.22;45.55;98649.95;2192348;88;25722;-77
2021/12/03 02:10:20;;;;;;;5.17;2.67;;;;;;;9.22;45.61;98659.91;2270236;86;25763;-79
2021/12/03 02:14:15;;;;;;;6.03;2.90;;;;;;;9.21;45.61;98658.58;2259233;86;26056;-79
2021/12/03 02:17:47;;;;;;;;;;;;;;;;;;;;;
2021/12/03 02:21:38;;;;;;;3.92;2.60;;;;;;;9.22;45.65;98670.31;2246984;87;25873;-78
2021/12/03 02:24:59;;;;;;;6.87;3.77;;;;;;;9.21;45.69;98668.98;2253180;87;25952;-78
2021/12/03 02:32:44;;;;;;;3.58;2.52;;;;;;;9.19;45.73;98678.53;2248874;87;26076;-78
2021/12/03 02:36:19;;;;;;;5.12;2.98;;;;;;;9.17;45.76;98679.81;2253988;87;25735;-77
2021/12/03 02:40:14;;;;;;;6.78;2.45;;;;;;;9.18;45.78;98701.51;2267827;85;26108;-79
2021/12/03 02:43:38;;;;;;;4.40;2.45;;;;;;;9.16;45.81;98701.92;2311987;84;25650;-79
2021/12/03 02:47:29;;;;;;;3.20;2.17;;;;;;;9.14;45.87;98704.50;2316041;84;25998;-76
2021/12/03 02:50:51;;;;;;;5.30;2.58;;;;;;;9.12;45.88;98710.15;2293212;85;25603;-78
2021/12/03 02:54:13;;;;;;;5.00;3.33;;;;;;;9.09;45.91;98715.34;2311905;85;25989;-78
2021/12/03 02:57:43;;;;;;;4.67;2.87;;;;;;;9.07;45.93;98722.69;2317163;85;25720;-78
2021/12/03 03:01:13;;;;;;;5.65;3.35;;;;;;;9.04;45.97;98729.17;2313619;84;25611;-77
2021/12/03 03:04:34;;;;;;;4.17;3.05;;;;;;;9.02;46.00;98731.78;2311127;85;25687;-78
2021/12/03 03:08:00;;;;;;;3.80;2.60;;;;;;;9.02;46.06;98738.72;2316317;85;25555;-78
2021/12/03 03:11:22;;;;;;;6.17;2.85;;;;;;;8.99;46.09;98733.06;2322208;85;25658;-78
2021/12/03 03:14:49;;;;;;;4.78;2.70;;;;;;;8.96;46.14;98744.31;2325015;85;25694;-78
2021/12/03 03:18:18;;;;;;;3.85;2.27;;;;;;;8.95;46.19;98736.52;2319485;84;25835;-79
2021/12/03 03:25:35;;;;;;;5.03;2.55;;;;;;;8.90;46.28;98745.58;2314500;84;25206;-79
2021/12/03 03:29:16;;;;;;;5.00;2.85;;;;;;;8.88;46.34;98756.86;2302081;84;25704;-79
2021/12/03 03:32:56;;;;;;;4.58;2.20;;;;;;;8.86;46.39;98755.97;2294186;84;25764;-78
2021/12/03 03:36:51;;;;;;;4.87;2.27;;;;;;;8.84;46.40;98770.67;2318296;84;26001;-78
2021/12/03 03:40:12;;;;;;;3.25;2.35;;;;;;;8.82;46.47;98769.81;2316288;84;25731;-78
2021/12/03 03:43:34;;;;;;;3.92;2.60;;;;;;;8.80;46.51;98781.92;2323072;84;25701;-78
2021/12/03 03:46:57;;;;;;;4.50;2.75;;;;;;;8.77;46.53;98786.66;2331673;84;25759;-78
2021/12/03 03:50:20;;;;;;;2.65;2.08;;;;;;;8.78;46.56;98796.22;2331872;84;25424;-78
2021/12/03 03:53:41;;;;;;;4.03;2.90;;;;;;;8.75;46.60;98799.66;2329369;84;26116;-77
2021/12/03 03:57:04;;;;;;;3.02;2.17;;;;;;;8.73;46.63;98800.50;2331607;84;25652;-77
2021/12/03 04:00:32;;;;;;;3.27;2.35;;;;;;;8.72;46.68;98819.56;2331768;84;25682;-77
2021/12/03 04:03:54;;;;;;;3.27;2.60;;;;;;;8.69;46.72;98819.54;2328861;84;25693;-77
2021/12/03 04:07:18;;;;;;;3.62;2.60;;;;;;;8.67;46.76;98814.34;2328678;84;25673;-77
2021/12/03 04:10:46;;;;;;;7.33;2.37;;;;;;;8.66;46.79;98811.72;2311719;84;25731;-79
2021/12/03 04:14:36;;;;;;;5.30;2.50;;;;;;;8.64;46.81;98809.53;2319555;84;25702;-83
2021/12/03 04:18:09;;;;;;;6.20;2.45;;;;;;;8.64;46.83;98816.03;2318613;83;25825;-77
2021/12/03 04:21:44;;;;;;;3.30;2.12;;;;;;;8.62;46.88;98816.47;2278765;86;25840;-78
2021/12/03 04:25:10;;;;;;;4.22;2.55;;;;;;;8.61;46.91;98818.20;2293769;86;26031;-78
2021/12/03 04:28:32;;;;;;;4.12;2.17;;;;;;;8.59;46.95;98816.01;2285732;86;25706;-77
2021/12/03 04:31:53;;;;;;;2.98;2.30;;;;;;;8.58;47.00;98817.31;2249988;86;26050;-77
2021/12/03 04:35:15;;;;;;;3.77;2.57;;;;;;;8.57;47.02;98825.94;2251682;87;25843;-77
2021/12/03 04:38:53;;;;;;;4.47;3.02;;;;;;;8.54;47.07;98830.70;2256123;86;25423;-78
2021/12/03 04:42:15;;;;;;;4.28;2.45;;;;;;;8.53;47.09;98834.58;2258556;86;25650;-79
2021/12/03 04:45:36;;;;;;;3.25;2.22;;;;;;;8.51;47.14;98835.45;2260091;87;26484;-77
2021/12/03 04:48:57;;;;;;;4.75;2.50;;;;;;;8.50;47.16;98846.70;2260110;87;26533;-78
2021/12/03 04:52:18;;;;;;;3.40;2.45;;;;;;;8.48;47.20;98851.00;2257559;87;25829;-77
2021/12/03 04:55:40;;;;;;;5.33;2.17;;;;;;;8.49;47.20;98854.47;2260761;87;25790;-78
2021/12/03 04:59:02;;;;;;;3.55;2.02;;;;;;;8.48;47.25;98856.20;2270227;87;25979;-77
2021/12/03 05:03:02;;;;;;;3.72;2.50;;;;;;;8.49;47.24;98850.14;2260663;86;25689;-80
2021/12/03 05:10:10;;;;;;;4.87;2.47;;;;;;;8.46;47.26;98857.91;2180776;89;25881;-78
2021/12/03 05:13:38;;;;;;;5.17;2.75;;;;;;;8.49;47.29;98864.85;2171289;89;25865;-79
2021/12/03 05:16:59;;;;;;;2.08;1.87;;;;;;;8.48;47.26;98871.78;2178340;89;25813;-79
2021/12/03 05:20:20;;;;;;;2.90;2.47;;;;;;;8.49;47.25;98883.89;2177247;89;26191;-78
2021/12/03 05:23:41;;;;;;;3.65;2.52;;;;;;;8.49;47.26;98889.09;2181705;90;25302;-78
2021/12/03 05:27:03;;;;;;;3.55;2.22;;;;;;;8.49;47.29;98890.39;2182955;90;26057;-77
2021/12/03 05:30:25;;;;;;;5.30;2.62;;;;;;;8.50;47.27;98897.34;2208436;87;25784;-77
2021/12/03 05:33:47;;;;;;;3.05;1.95;;;;;;;8.50;47.26;98892.16;2247197;87;25666;-79
2021/12/03 05:37:09;;;;;;;2.70;2.10;;;;;;;8.51;47.24;98904.70;2199386;89;26567;-78
2021/12/03 05:40:31;;;;;;;3.45;2.37;;;;;;;8.51;47.17;98906.00;2212369;87;25357;-79
2021/12/03 05:43:52;;;;;;;4.42;2.20;;;;;;;8.49;47.13;98917.66;2246082;88;25845;-79
2021/12/03 05:47:13;;;;;;;2.98;2.30;;;;;;;8.49;47.06;98921.98;2239571;88;25769;-79
2021/12/03 05:50:35;;;;;;;3.62;2.15;;;;;;;8.50;47.01;98918.52;2237624;88;26090;-77
2021/12/03 05:54:11;;;;;;;3.40;1.87;;;;;;;8.50;46.93;98925.91;2229745;88;25674;-78
2021/12/03 05:57:33;;;;;;;2.40;1.65;;;;;;;8.50;46.95;98931.11;2244567;88;26418;-78
2021/12/03 06:00:54;;;;;;;4.35;2.15;;;;;;;8.51;46.94;98932.84;2242342;88;25759;-79
2021/12/03 06:04:15;;;;;;;2.75;1.80;;;;;;;8.50;46.91;98928.52;2254501;85;26083;-79
2021/12/03 06:07:36;;;;;;;3.80;2.25;;;;;;;8.51;46.94;98930.67;2234769;88;25650;-79
2021/12/03 06:10:57;;;;;;;2.55;1.45;;;;;;;8.49;46.92;98934.54;2244040;88;25723;-79
2021/12/03 06:14:18;;;;;;;1.57;1.33;;;;;;;8.50;46.93;98926.31;2243034;88;26141;-78
2021/12/03 06:18:00;;;;;;;2.62;1.50;;;;;;;8.50;46.91;98941.90;2236442;88;25707;-78
2021/12/03 06:21:23;;;;;;;2.77;2.00;;;;;;;8.49;46.92;98942.77;2241871;88;26032;-78
2021/12/03 06:24:44;;;;;;;2.67;1.80;;;;;;;8.47;46.90;98947.06;2245257;86;25695;-77
2021/12/03 06:28:09;;;;;;;1.75;1.40;;;;;;;8.46;46.86;98947.93;2242968;87;25774;-79
2021/12/03 06:31:30;;;;;;;1.95;1.50;;;;;;;8.44;46.86;98950.52;2234687;88;25753;-78
2021/12/03 06:35:20;;;;;;;1.95;1.37;;;;;;;8.43;46.83;98953.95;2232376;88;26005;-78
2021/12/03 06:38:42;;;;;;;1.65;1.42;;;;;;;8.42;46.83;98965.64;2244872;87;25802;-77
2021/12/03 06:42:05;;;;;;;1.25;1.05;;;;;;;8.40;46.79;98966.05;2227368;87;25668;-77
2021/12/03 06:45:29;;;;;;;1.72;1.20;;;;;;;8.37;46.82;98968.58;2240317;88;25558;-77
2021/12/03 06:48:50;;;;;;;3.35;1.45;;;;;;;8.38;46.84;98980.76;2243336;87;25635;-79
2021/12/03 06:52:15;;;;;;;1.10;0.98;;;;;;;8.36;46.87;98994.11;2242631;88;25747;-77
2021/12/03 06:59:05;;;;;;;2.12;1.30;;;;;;;8.34;46.92;99003.63;2245439;88;26396;-78
2021/12/03 07:02:26;;;;;;;2.00;1.33;;;;;;;8.33;46.91;99007.05;2245546;88;25664;-78
2021/12/03 07:05:48;;;;;;;1.93;1.30;;;;;;;8.33;46.96;99012.25;2245941;87;27143;-78
2021/12/03 07:09:09;;;;;;;1.92;1.40;;;;;;;8.35;46.96;99017.05;2246158;87;25716;-78
2021/12/03 07:12:31;;;;;;;2.45;1.35;;;;;;;8.36;46.95;99018.77;2246071;88;25247;-77
2021/12/03 07:15:54;;;;;;;1.47;1.20;;;;;;;8.37;46.97;99027.00;2234209;88;25691;-77
2021/12/03 07:19:34;;;;;;;2.85;1.50;;;;;;;8.38;46.95;99032.69;2234653;88;25715;-79
2021/12/03 07:23:07;;;;;;;2.05;1.35;;;;;;;8.40;46.95;99025.34;2230690;87;25936;-77
2021/12/03 07:26:49;;;;;;;2.12;1.30;;;;;;;8.46;46.93;99040.13;2238803;87;25680;-78
2021/12/03 07:30:19;;;;;;;1.20;1.10;;;;;;;8.48;46.87;99043.19;2235445;87;25728;-77
2021/12/03 07:33:40;;;;;;;1.57;1.20;;;;;;;8.50;46.87;99043.19;2214533;88;25839;-78
2021/12/03 07:37:04;;;;;;;1.55;1.10;;;;;;;8.51;46.87;99054.05;2242938;87;25919;-75
2021/12/03 07:40:28;;;;;;;2.55;1.45;;;;;;;8.53;46.88;99056.64;2245005;88;25727;-76
2021/12/03 07:43:49;;;;;;;1.55;0.90;;;;;;;8.54;46.88;99059.27;2237637;87;25712;-76
2021/12/03 07:51:01;;;;;;;2.95;2.75;;;;;;;8.58;46.84;99060.17;2182682;89;25821;-76
2021/12/03 07:54:40;;;;;;;3.05;1.98;;;;;;;8.73;46.98;99072.00;2211945;88;26075;-76
2021/12/03 07:58:04;;;;;;;7.62;7.12;;;;;;;10.09;46.41;99066.90;2200100;89;25768;-83
2021/12/03 08:01:25;;;;;;;17.05;6.70;;;;;;;10.35;43.60;99074.86;2214366;88;25997;-75
2021/12/03 08:05:07;;;;;;;20.40;12.58;;;;;;;10.50;49.09;99075.36;2194963;89;25812;-81
2021/12/03 08:08:38;;;;;;;6.70;6.15;;;;;;;11.99;47.68;99082.77;2195171;89;25713;-75
2021/12/03 08:12:08;;;;;;;5.45;2.45;;;;;;;12.80;43.13;99085.02;2183509;88;26276;-74
2021/12/03 08:15:36;;;;;;;4.95;4.45;;;;;;;12.49;41.04;99075.17;2212349;88;25719;-73
2021/12/03 08:18:54;;;;;;;5.40;3.37;;;;;;;12.62;40.08;99081.18;2203615;89;25465;-74
2021/12/03 08:22:15;;;;;;;4.28;2.92;;;;;;;13.73;38.92;99079.92;2225320;87;25766;-75
2021/12/03 08:25:39;;;;;;;2.60;2.40;;;;;;;14.52;37.09;99073.80;2206899;89;25856;-76
2021/12/03 08:29:01;;;;;;;2.40;2.20;;;;;;;15.64;35.75;99083.00;2259067;86;25705;-80
2021/12/03 08:32:22;;;;;;;2.20;2.00;;;;;;;16.28;34.73;99073.92;2234506;88;26000;-81
2021/12/03 08:35:43;;;;;;;2.27;1.60;;;;;;;16.70;32.41;99088.36;2240519;88;26014;-73
2021/12/03 08:39:30;;;;;;;2.92;2.08;;;;;;;15.56;32.86;99084.46;2226850;88;26593;-75
2021/12/03 08:43:11;;;;;;;2.65;2.05;;;;;;;15.73;33.15;99082.43;2228036;87;26061;-74
2021/12/03 08:46:39;;;;;;;1.90;1.37;;;;;;;16.87;32.31;99098.09;2239948;88;25730;-74
2021/12/03 08:50:01;;;;;;;4.75;2.20;;;;;;;17.74;30.92;99093.80;2243871;87;26120;-73
2021/12/03 08:57:26;;;;;;;2.47;2.02;;;;;;;18.41;29.73;99093.30;2234046;87;25735;-76
2021/12/03 09:00:48;;;;;;;2.02;1.72;;;;;;;17.25;29.64;99084.97;2238303;88;25822;-76
2021/12/03 09:04:12;;;;;;;5.25;2.70;;;;;;;17.65;29.77;99094.03;2243703;88;25602;-80
2021/12/03 09:07:39;;;;;;;3.42;1.75;;;;;;;18.04;29.59;99096.10;2234298;87;25688;-79
2021/12/03 09:11:17;;;;;;;4.58;1.90;;;;;;;17.94;28.06;99099.44;2202514;89;25828;-75
2021/12/03 09:21:37;;;;;;;2.92;2.08;;;;;;;16.52;28.96;99092.27;2216485;88;25732;-79
2021/12/03 09:24:58;;;;;;;2.45;1.55;;;;;;;16.08;28.99;99087.46;2218537;88;25768;-84
2021/12/03 09:28:27;;;;;;;5.50;1.77;;;;;;;15.26;28.94;99075.34;2225331;88;25722;-79
2021/12/03 09:31:50;;;;;;;4.25;1.98;;;;;;;14.64;29.55;99079.30;2218762;87;25878;-80
2021/12/03 09:35:43;;;;;;;2.77;1.55;;;;;;;14.25;30.15;99076.74;2226677;88;26124;-79
2021/12/03 09:39:02;;;;;;;3.22;2.20;;;;;;;14.13;30.09;99075.98;2218272;86;26044;-79
2021/12/03 09:42:24;;;;;;;3.10;1.95;;;;;;;14.00;30.45;99065.66;2240799;88;26308;-81
2021/12/03 09:45:58;;;;;;;6.92;2.45;;;;;;;13.61;30.80;99061.29;2235016;87;25719;-76
2021/12/03 09:56:21;;;;;;;8.78;3.87;;;;;;;13.67;31.37;99058.17;2152478;89;25753;-77
2021/12/03 10:03:45;;;;;;;4.55;2.87;;;;;;;13.56;31.19;99036.88;2154519;91;25915;-79
2021/12/03 10:18:22;;;;;;;3.83;2.08;;;;;;;12.14;32.30;99026.54;2057527;95;26148;-81
2021/12/03 10:22:26;;;;;;;7.83;2.52;;;;;;;11.44;32.84;99026.31;2055561;93;26122;-79
2021/12/03 11:38:27;;;;;;;5.53;2.92;;;;;;;12.83;34.85;99027.46;2183522;89;25736;-78
2021/12/03 14:55:36;;;;;;;11.85;5.10;;;;;;;9.07;42.82;99187.56;2086657;92;25834;-82
2021/12/03 14:59:20;;;;;;;6.65;4.62;;;;;;;8.97;42.89;99194.39;2069954;95;25765;-82
2021/12/03 15:03:01;;;;;;;8.85;5.08;;;;;;;8.93;42.95;99194.34;2070917;95;25525;-84
2021/12/03 15:06:30;;;;;;;12.98;4.65;;;;;;;8.89;43.05;99196.48;2056916;94;25797;-83
2021/12/03 15:09:52;;;;;;;8.00;4.62;;;;;;;8.86;43.18;99201.64;2066936;94;26169;-84
2021/12/03 15:35:19;;;;;;;11.28;4.87;;;;;;;8.54;43.47;99232.41;2259431;86;26120;-83
2021/12/03 16:04:17;;;;;;;8.43;4.45;;;;;;;8.29;43.94;99247.62;2274091;85;26244;-83
2021/12/03 16:14:46;;;;;;;10.25;4.58;;;;;;;8.30;44.12;99262.34;2279166;86;25684;-78
2021/12/03 16:25:06;;;;;;;8.80;4.62;;;;;;;8.31;44.46;99268.00;2279487;86;25661;-81
2021/12/03 16:54:10;;;;;;;9.95;3.98;;;;;;;8.25;44.73;99301.23;2185872;89;25714;-78
2021/12/03 16:57:33;;;;;;;6.95;4.30;;;;;;;8.33;44.73;99297.88;2197133;88;25776;-78
2021/12/03 17:01:06;;;;;;;10.05;4.53;;;;;;;8.37;44.67;99287.97;2190963;89;26015;-78
2021/12/03 17:15:05;;;;;;;5.95;3.75;;;;;;;8.50;44.55;99307.72;2252581;87;25644;-79
2021/12/03 17:18:56;;;;;;;8.93;4.92;;;;;;;8.51;44.52;99300.36;2242973;87;26455;-78
2021/12/03 17:51:02;;;;;;;5.15;3.37;;;;;;;8.57;44.27;99319.03;2174065;89;25747;-78
2021/12/03 17:58:01;;;;;;;9.05;4.08;;;;;;;8.76;45.20;99305.89;2259716;86;25824;-77
2021/12/03 18:01:30;;;;;;;8.05;3.45;;;;;;;8.74;45.26;99316.28;2246685;87;25774;-77
2021/12/03 18:57:56;;;;;;;9.03;3.93;;;;;;;8.78;46.46;99361.37;2248858;86;26057;-77
2021/12/03 19:01:14;;;;;;;6.47;4.08;;;;;;;8.80;46.42;99375.23;2247193;87;25663;-77
2021/12/03 19:12:19;;;;;;;10.32;4.97;;;;;;;8.79;46.17;99380.00;2237340;88;25648;-76
2021/12/03 19:15:40;;;;;;;9.05;5.17;;;;;;;8.80;46.07;99380.44;2240596;87;25286;-76
2021/12/03 19:19:03;;;;;;;8.50;5.65;;;;;;;8.82;45.98;99380.47;2245529;86;25679;-76
2021/12/03 19:23:12;;;;;;;9.83;6.35;;;;;;;8.82;45.90;99389.57;2224117;87;25917;-76
2021/12/03 19:26:36;;;;;;;7.92;5.33;;;;;;;8.84;45.80;99389.14;2241833;86;26055;-77
2021/12/03 19:29:59;;;;;;;10.65;5.95;;;;;;;8.83;45.68;99392.17;2285626;86;25766;-75
2021/12/03 19:33:21;;;;;;;11.10;5.97;;;;;;;8.82;45.60;99389.14;2285161;86;25733;-76
2021/12/03 19:36:46;;;;;;;10.32;6.17;;;;;;;8.83;45.49;99384.37;2272309;86;25730;-77
2021/12/03 19:40:12;;;;;;;9.25;6.40;;;;;;;8.82;45.37;99396.94;2266227;86;25714;-75
2021/12/03 19:43:43;;;;;;;16.17;6.72;;;;;;;8.82;45.33;99395.64;2288940;86;26605;-78
2021/12/03 19:46:58;;;;;;;11.45;6.25;;;;;;;8.82;45.23;99398.67;2288621;86;25695;-76
2021/12/03 19:50:27;;;;;;;9.40;6.53;;;;;;;8.84;45.17;99415.14;2290521;86;26206;-78
2021/12/03 19:54:06;;;;;;;9.60;6.00;;;;;;;8.84;45.12;99406.05;2266007;86;25217;-78
2021/12/03 19:57:37;;;;;;;11.75;6.03;;;;;;;8.84;45.07;99409.55;2213066;88;25755;-82
2021/12/03 20:00:57;;;;;;;11.00;6.90;;;;;;;8.86;44.97;99424.71;2233576;87;26368;-79
2021/12/03 20:04:36;;;;;;;15.30;6.67;;;;;;;8.85;44.91;99416.91;2229576;88;29121;-79
2021/12/03 20:07:59;;;;;;;7.97;5.60;;;;;;;8.84;44.80;99416.04;2151865;90;26466;-79
2021/12/03 20:11:23;;;;;;;11.65;6.83;;;;;;;8.83;44.76;99419.47;2147295;90;25717;-77
2021/12/03 20:14:45;;;;;;;9.35;6.37;;;;;;;8.82;44.72;99424.22;2147556;90;25695;-78
2021/12/03 20:18:52;;;;;;;9.30;5.87;;;;;;;8.81;44.67;99422.88;2208962;84;26108;-79
2021/12/03 20:32:39;;;;;;;9.98;6.35;;;;;;;8.76;44.54;99408.53;2271143;86;25879;-80
2021/12/03 20:39:40;;;;;;;9.68;6.22;;;;;;;8.72;44.47;99417.14;2216599;86;26466;-81
2021/12/03 20:58:43;;;;;;;9.63;5.40;;;;;;;8.57;44.38;99419.48;2086705;89;25873;-78
2021/12/03 21:08:59;;;;;;;7.37;5.53;;;;;;;8.51;44.34;99427.64;2123604;93;25888;-80
2021/12/03 21:16:42;;;;;;;9.05;5.80;;;;;;;8.42;44.32;99424.88;2070391;92;26094;-81
2021/12/03 21:19:59;;;;;;;10.30;6.12;;;;;;;8.42;44.23;99424.02;2068427;93;26197;-82
2021/12/03 21:23:12;;;;;;;10.60;6.00;;;;;;;8.36;44.10;99418.25;2071031;91;25578;-78
2021/12/03 21:26:34;;;;;;;10.40;5.95;;;;;;;8.36;44.10;99418.25;2099016;93;25687;-77
2021/12/03 21:44:14;;;;;;;10.13;5.20;;;;;;;8.23;44.14;99414.98;2168163;90;25771;-77
2021/12/03 21:47:35;;;;;;;10.18;5.85;;;;;;;8.31;48.58;99415.14;2153657;90;25870;-79
2021/12/03 21:50:59;;;;;;;9.85;5.25;;;;;;;8.46;47.63;99416.28;2154811;90;25813;-75
2021/12/03 21:54:32;;;;;;;11.22;6.15;;;;;;;8.44;47.55;99421.90;2135116;90;25700;-80
2021/12/03 21:58:07;;;;;;;9.30;5.90;;;;;;;8.37;47.58;99405.73;2055018;94;26266;-88
2021/12/03 22:01:30;;;;;;;13.95;4.75;;;;;;;8.32;47.54;99403.47;2049220;95;26231;-75
2021/12/03 22:04:54;;;;;;;16.02;5.72;;;;;;;8.27;47.35;99411.19;2072823;93;25835;-94
2021/12/03 22:08:18;;;;;;;14.28;7.33;;;;;;;8.25;47.18;99419.80;2065780;95;25736;-73
2021/12/03 22:11:49;;;;;;;12.58;6.50;;;;;;;8.22;47.03;99413.25;2109475;92;26059;-75
2021/12/03 22:15:12;;;;;;;9.78;5.92;;;;;;;8.18;46.84;99412.32;2099280;93;53395;-75
2021/12/03 22:18:34;;;;;;;9.03;5.62;;;;;;;8.16;46.63;99415.30;2097079;92;25656;-75
2021/12/03 22:22:06;;;;;;;6.78;3.95;;;;;;;8.15;46.47;99413.98;2158663;89;25955;-73
2021/12/03 22:25:27;;;;;;;9.00;4.87;;;;;;;8.32;54.15;99399.57;2230266;87;25715;-80
2021/12/03 22:28:48;;;;;;;8.20;4.83;;;;;;;8.87;52.84;99399.16;2214480;89;25730;-71
2021/12/03 22:32:10;;;;;;;11.05;5.10;;;;;;;8.91;52.20;99384.48;2212199;88;25862;-71
2021/12/03 22:35:53;;;;;;;5.53;4.25;;;;;;;8.85;51.83;99388.32;2190930;88;25844;-72
2021/12/03 22:39:12;;;;;;;11.10;5.10;;;;;;;8.79;51.47;99389.52;2213812;89;26474;-71
2021/12/03 22:42:33;;;;;;;9.10;4.87;;;;;;;8.72;51.26;99392.45;2219379;89;26385;-74
2021/12/03 22:49:52;;;;;;;6.87;5.10;;;;;;;8.61;50.89;99378.44;2273929;87;25589;-73
2021/12/03 22:53:01;;;;;;;8.53;4.97;;;;;;;8.57;50.70;99371.42;2250074;86;25586;-77
2021/12/03 22:56:23;;;;;;;8.70;4.80;;;;;;;8.50;50.51;99373.05;2287963;86;26500;-77
2021/12/03 22:59:45;;;;;;;8.20;5.17;;;;;;;8.45;50.42;99373.42;2257192;85;25944;-74
2021/12/03 23:03:06;;;;;;;7.15;4.80;;;;;;;8.40;50.25;99375.92;2273275;86;25637;-75
2021/12/03 23:06:33;;;;;;;8.70;4.77;;;;;;;8.34;50.08;99377.11;2267538;86;28053;-77
2021/12/03 23:09:54;;;;;;;6.22;4.72;;;;;;;8.28;49.88;99377.88;2289754;86;25743;-74
2021/12/03 23:13:16;;;;;;;8.15;5.22;;;;;;;8.22;49.64;99371.70;2280368;86;26127;-78
2021/12/03 23:16:37;;;;;;;14.98;6.72;;;;;;;8.15;49.34;99370.73;2283348;85;25631;-81
2021/12/03 23:19:58;;;;;;;7.60;5.40;;;;;;;8.11;49.12;99369.36;2334325;84;26125;-77
2021/12/03 23:23:25;;;;;;;6.70;4.97;;;;;;;8.05;48.91;99361.03;2338346;84;25744;-71
2021/12/03 23:26:48;;;;;;;9.15;4.95;;;;;;;8.00;48.60;99354.91;2338882;84;25618;-71
2021/12/03 23:30:11;;;;;;;8.63;5.60;;;;;;;7.95;48.44;99350.05;2338866;83;25632;-73
2021/12/03 23:33:34;;;;;;;9.35;5.72;;;;;;;7.91;48.24;99346.95;2338808;84;25147;-76
2021/12/03 23:36:58;;;;;;;9.03;5.00;;;;;;;7.87;48.08;99342.13;2338444;84;25691;-71
2021/12/03 23:40:20;;;;;;;10.20;6.33;;;;;;;7.83;47.88;99345.92;2338557;84;25706;-71
2021/12/03 23:43:42;;;;;;;5.95;4.42;;;;;;;7.77;47.64;99343.69;2338513;83;25726;-76
2021/12/03 23:47:03;;;;;;;10.88;5.08;;;;;;;7.74;47.52;99341.03;2316663;84;25774;-72
2021/12/03 23:50:24;;;;;;;6.75;5.00;;;;;;;7.71;47.33;99343.56;2338345;84;25716;-74
2021/12/03 23:53:48;;;;;;;8.28;4.80;;;;;;;7.67;47.19;99337.87;2330637;84;25631;-72
2021/12/03 23:57:13;;;;;;;8.75;4.90;;;;;;;7.63;47.01;99334.78;2335140;84;25749;-72
